Palm Bay, FL

2:22 AM EST on February 28, 2015 (GMT -0500)
Lockmar | Change Station
CLOSE
Current Station
Personal Weather Station
Location: Palm Bay, FL
Elevation: 49 ft
Nearby Weather Stations

Elev 49 ft 28.03 °N, 80.67 °W | Updated 20 seconds ago

Overcast
Overcast
65.9 °F
Feels Like 65.9 °F
N
3.0
Wind Variable Wind from NE
Gusts 10.0 mph

Today
High -- | Low -- °F
--% Chance of Precip.
Yesterday
High -- | Low -- °F
Precip. -- in
6:48 AM 6:22 PM
Waxing Gibbous, 75% visible
Pressure 30.21 in
Visibility 9.0 miles
Clouds Few 900 ft
Scattered Clouds 2500 ft
Overcast 3300 ft
Dew Point 64 °F
Humidity 94%
Rainfall 0.00 in
Snow Depth Not available.
UV 0 out of 12
Pollen 10.40 out of 12
Air Quality Not available.
Flu Activity Not available.
SPECI KMLB 280709Z AUTO 07011KT 9SM FEW009 SCT025 OVC033 19/18 A3021 RMK AO2 T01890178

More Conditions Fewer Conditions

Pressure 30.21 in
Visibility 9.0 miles
Clouds Few 900 ft
Scattered Clouds 2500 ft
Overcast 3300 ft
Dew Point 64 °F
Humidity 94%
Rainfall 0.00 in
Snow Depth Not available.
UV 0 out of 12
Pollen 10.40 out of 12
Air Quality Not available.
Flu Activity Not available.
SPECI KMLB 280709Z AUTO 07011KT 9SM FEW009 SCT025 OVC033 19/18 A3021 RMK AO2 T01890178

More Conditions Fewer Conditions

Nowcast | as of 10:48 PM EST on February 27, 2015

Temperatures are expected to remain steady or slowly rise into the upper 50s over the interior and northern sections...including the I 4 corridor. But temperatures will rise into the 60s along the Brevard coast as an onshore northeast flow develops. This has already occurred along the Treasure Coast where temperatures have jumped into the mid 60s. Areas of light rain and sprinkles will occur overnight. Areas most preferred will be across North Lake and Volusia counties as well as along the coast from Brevard...Indian River...Saint Lucie to Martin counties. Additional details...including graphics are available online at: http://www.Srh.NOAA.Gov/mlb/blog.Php

×

10-Day Weather Forecast

Almanac

Astronomy

Feb. 28, 2015 Rise Set
Actual Time
Civil Twilight
Nautical Twilight
Astronomical Twilight
Moon
Length of Visible Light
Length of Day
Tomorrow will be .
, % of the Moon is Illuminated

Today's Extremes

State Highs State Lows

Community

WunderPhotos

Upload Photos

1,800,979 photos uploaded!

WunderBlogs® & News

Nearby

Air Quality

  Air Quality AQ Index Pollutant
Not available.

Snow Depth

Station Depth Elevation

Earthquake Activity

City Distance Mag. Time & Date
Minimum magnitude displayed is 2.5.

Coastal Water Temperatures

Place Temperature

Nearby Weather Stations